createdAt,value
2023-03-30T00:02:31.979Z,32.20
2023-03-30T00:05:07.398Z,32.10
2023-03-30T00:07:42.671Z,31.70
2023-03-30T00:10:19.213Z,31.60
2023-03-30T00:12:54.277Z,31.70
2023-03-30T00:15:29.191Z,31.60
2023-03-30T00:18:04.137Z,31.50
2023-03-30T00:20:43.014Z,31.40
2023-03-30T00:23:19.731Z,31.30
2023-03-30T00:25:55.881Z,31.30
2023-03-30T00:28:31.694Z,31.40
2023-03-30T00:31:06.779Z,31.40
2023-03-30T00:33:46.341Z,31.40
2023-03-30T00:36:22.597Z,31.40
2023-03-30T00:38:57.554Z,31.90
2023-03-30T00:41:36.889Z,31.60
2023-03-30T00:45:07.724Z,31.50
2023-03-30T00:47:52.309Z,31.60
2023-03-30T00:50:37.659Z,31.70
2023-03-30T00:53:24.512Z,31.80
2023-03-30T00:56:01.388Z,31.70
2023-03-30T00:58:38.745Z,31.70
2023-03-30T01:01:18.845Z,31.70
2023-03-30T01:04:02.263Z,31.80
2023-03-30T01:06:40.875Z,31.80
2023-03-30T01:09:17.427Z,31.90
2023-03-30T01:11:52.440Z,33.20
2023-03-30T01:14:27.326Z,32.10
2023-03-30T01:17:29.634Z,32.10
2023-03-30T01:20:35.908Z,32.10
2023-03-30T01:23:47.009Z,32.20
2023-03-30T01:27:11.917Z,32.30
2023-03-30T01:30:31.698Z,32.80
2023-03-30T01:34:11.056Z,33.10
2023-03-30T01:37:06.276Z,33.10
2023-03-30T01:40:09.946Z,33.70
2023-03-30T01:42:58.770Z,35.00
2023-03-30T01:45:52.148Z,35.90
2023-03-30T01:48:47.695Z,35.60
2023-03-30T01:51:51.331Z,36.00
2023-03-30T01:54:35.444Z,35.40
2023-03-30T01:57:18.731Z,36.00
2023-03-30T02:00:01.279Z,36.40
2023-03-30T02:02:37.002Z,36.00
2023-03-30T02:05:17.976Z,36.00
2023-03-30T02:07:58.622Z,36.50
2023-03-30T02:10:36.190Z,36.60
2023-03-30T02:13:13.154Z,36.70
2023-03-30T02:16:02.933Z,36.60
2023-03-30T02:18:38.735Z,36.60
2023-03-30T02:21:13.774Z,36.40
2023-03-30T02:23:49.005Z,36.40
2023-03-30T02:26:24.157Z,36.40
2023-03-30T02:28:59.206Z,36.30
2023-03-30T02:31:37.171Z,36.30
2023-03-30T02:34:46.270Z,36.40
2023-03-30T02:37:36.011Z,36.30
2023-03-30T02:40:23.007Z,36.40
2023-03-30T02:43:13.281Z,36.50
2023-03-30T02:46:20.515Z,36.50
2023-03-30T02:49:07.474Z,36.50
2023-03-30T02:51:52.966Z,36.20
2023-03-30T02:54:59.659Z,36.30
2023-03-30T02:58:44.203Z,36.60
2023-03-30T03:01:51.124Z,38.50
2023-03-30T03:04:28.830Z,39.50
2023-03-30T03:07:24.624Z,39.90
2023-03-30T03:10:00.394Z,40.90
2023-03-30T03:12:36.171Z,41.40
2023-03-30T03:15:12.440Z,42.10
2023-03-30T03:17:56.918Z,43.10
2023-03-30T03:20:32.268Z,43.30
2023-03-30T03:23:09.304Z,43.60
2023-03-30T03:25:51.605Z,43.80
2023-03-30T03:28:29.720Z,44.00
2023-03-30T03:31:13.971Z,44.40
2023-03-30T03:33:50.626Z,44.40
2023-03-30T03:36:30.852Z,44.70
2023-03-30T03:39:05.775Z,45.20
2023-03-30T03:41:40.708Z,46.30
2023-03-30T03:44:16.224Z,46.90
2023-03-30T03:46:51.394Z,47.60
2023-03-30T03:49:26.494Z,48.80
2023-03-30T03:52:01.614Z,48.50
2023-03-30T03:54:36.536Z,48.80
2023-03-30T03:57:11.475Z,48.90
2023-03-30T03:59:46.674Z,49.30
2023-03-30T04:02:23.933Z,49.80
2023-03-30T04:05:01.134Z,50.20
2023-03-30T04:07:36.983Z,50.70
2023-03-30T04:10:13.234Z,50.40
2023-03-30T04:13:04.978Z,50.80
2023-03-30T04:16:00.400Z,51.20
2023-03-30T04:18:53.635Z,52.00
2023-03-30T04:22:00.895Z,51.80
2023-03-30T04:24:59.147Z,52.10
2023-03-30T04:28:05.008Z,52.00
2023-03-30T04:31:12.931Z,52.90
2023-03-30T04:34:06.368Z,53.30
2023-03-30T04:36:50.621Z,53.50
2023-03-30T04:39:45.777Z,53.40
2023-03-30T04:42:41.751Z,52.90
2023-03-30T04:45:39.989Z,53.30
2023-03-30T04:48:38.050Z,53.20
2023-03-30T04:51:31.847Z,52.90
2023-03-30T04:54:36.458Z,52.60
2023-03-30T04:57:34.323Z,52.40
2023-03-30T05:00:35.033Z,52.20
2023-03-30T05:03:28.518Z,51.90
2023-03-30T05:06:04.096Z,51.90
2023-03-30T05:08:48.531Z,51.70
2023-03-30T05:11:46.832Z,51.40
2023-03-30T05:15:01.014Z,51.00
2023-03-30T05:17:51.698Z,51.20
2023-03-30T05:20:59.814Z,51.60
2023-03-30T05:24:01.375Z,51.20
2023-03-30T05:27:07.021Z,50.90
2023-03-30T05:29:54.223Z,51.00
2023-03-30T05:32:49.351Z,51.20
2023-03-30T05:35:43.153Z,51.30
2023-03-30T05:38:42.011Z,51.10
2023-03-30T05:41:50.760Z,51.00
2023-03-30T05:44:54.790Z,51.20
2023-03-30T05:47:48.509Z,51.60
2023-03-30T05:50:48.273Z,51.50
2023-03-30T05:53:36.501Z,51.40
2023-03-30T05:56:32.935Z,51.60
2023-03-30T05:59:27.377Z,52.20
2023-03-30T06:02:21.438Z,52.50
2023-03-30T06:04:57.577Z,53.10
2023-03-30T06:07:32.782Z,54.30
2023-03-30T06:10:08.354Z,55.20
2023-03-30T06:12:43.780Z,55.40
2023-03-30T06:15:33.712Z,54.30
2023-03-30T06:18:17.951Z,53.70
2023-03-30T06:21:02.911Z,55.10
2023-03-30T06:23:38.392Z,54.40
2023-03-30T06:26:17.800Z,54.60
2023-03-30T06:28:55.173Z,54.50
2023-03-30T06:31:30.574Z,55.10
2023-03-30T06:34:28.042Z,55.50
2023-03-30T06:37:03.467Z,56.50
2023-03-30T06:39:38.604Z,55.70
2023-03-30T06:42:14.425Z,54.50
2023-03-30T06:45:09.162Z,53.60
2023-03-30T06:47:46.188Z,52.20
2023-03-30T06:50:21.462Z,51.40
2023-03-30T06:52:56.531Z,50.20
2023-03-30T06:55:33.052Z,49.20
2023-03-30T06:58:10.219Z,48.40
2023-03-30T07:00:45.574Z,48.30
2023-03-30T07:03:48.922Z,49.30
2023-03-30T07:06:36.187Z,50.30
2023-03-30T07:09:12.886Z,51.40
2023-03-30T07:11:48.284Z,52.60
2023-03-30T07:14:23.318Z,54.60
2023-03-30T07:16:58.586Z,58.50
2023-03-30T07:19:33.642Z,68.60
2023-03-30T07:22:09.676Z,75.10
2023-03-30T07:24:45.981Z,80.60
2023-03-30T07:27:24.009Z,83.40
2023-03-30T07:30:17.950Z,86.80
2023-03-30T07:32:59.267Z,88.60
2023-03-30T07:35:34.374Z,89.50
2023-03-30T07:38:14.475Z,90.30
2023-03-30T07:40:54.530Z,90.60
2023-03-30T07:43:31.558Z,91.00
2023-03-30T07:46:09.816Z,91.30
2023-03-30T07:48:47.241Z,91.30
2023-03-30T07:51:23.516Z,91.60
2023-03-30T07:54:28.766Z,91.70
2023-03-30T07:57:13.550Z,91.70
2023-03-30T07:59:49.208Z,91.90
2023-03-30T08:02:42.859Z,91.80
2023-03-30T08:05:22.107Z,92.10
2023-03-30T08:08:13.805Z,92.30
2023-03-30T08:10:48.915Z,92.40
2023-03-30T08:13:24.276Z,92.70
2023-03-30T08:16:00.134Z,92.60
2023-03-30T08:18:37.030Z,93.10
2023-03-30T08:21:12.253Z,92.60
2023-03-30T08:23:47.359Z,92.70
2023-03-30T08:26:22.263Z,92.60
2023-03-30T08:28:58.040Z,92.70
2023-03-30T08:31:33.157Z,92.70
2023-03-30T08:34:08.587Z,92.70
2023-03-30T08:36:43.534Z,92.70
2023-03-30T08:39:18.462Z,92.60
2023-03-30T08:42:06.115Z,92.70
2023-03-30T08:44:53.933Z,92.70
2023-03-30T08:47:37.400Z,92.80
2023-03-30T08:50:19.176Z,92.90
2023-03-30T08:52:54.103Z,92.80
2023-03-30T08:55:54.254Z,92.70
2023-03-30T08:58:45.820Z,92.50
2023-03-30T09:01:40.688Z,92.30
2023-03-30T09:04:42.037Z,92.20
2023-03-30T09:07:24.644Z,92.10
2023-03-30T09:10:00.389Z,91.70
2023-03-30T09:12:52.792Z,91.70
2023-03-30T09:15:46.230Z,91.70
2023-03-30T09:18:35.691Z,91.70
2023-03-30T09:21:12.629Z,91.60
2023-03-30T09:23:47.541Z,91.60
2023-03-30T09:26:49.798Z,91.40
2023-03-30T09:29:45.404Z,91.50
2023-03-30T09:32:34.072Z,91.50
2023-03-30T09:35:16.079Z,91.40
2023-03-30T09:37:51.016Z,91.40
2023-03-30T09:40:55.287Z,91.50
2023-03-30T09:43:44.398Z,91.50
2023-03-30T09:46:19.401Z,91.40
2023-03-30T09:48:54.581Z,91.10
2023-03-30T09:51:31.244Z,91.00
2023-03-30T09:54:07.037Z,90.80
2023-03-30T09:56:51.335Z,90.50
2023-03-30T09:59:35.498Z,89.70
2023-03-30T10:02:13.488Z,89.00
2023-03-30T10:04:55.149Z,89.20
2023-03-30T10:07:41.953Z,88.80
2023-03-30T10:10:40.168Z,88.20
2023-03-30T10:13:17.736Z,87.70
2023-03-30T10:15:54.134Z,87.70
2023-03-30T10:18:39.094Z,87.40
2023-03-30T10:21:14.939Z,84.90
2023-03-30T10:24:10.250Z,87.30
2023-03-30T10:26:47.027Z,85.90
2023-03-30T10:29:26.190Z,84.00
2023-03-30T10:32:14.604Z,82.80
2023-03-30T10:35:01.709Z,81.30
2023-03-30T10:37:46.952Z,64.20
2023-03-30T10:40:33.981Z,60.70
2023-03-30T10:43:26.332Z,66.60
2023-03-30T10:46:20.188Z,60.30
2023-03-30T10:49:06.449Z,63.10
2023-03-30T10:52:03.613Z,64.10
2023-03-30T10:54:50.394Z,58.30
2023-03-30T10:58:19.134Z,51.90
2023-03-30T11:00:57.139Z,55.40
2023-03-30T11:03:34.095Z,53.30
2023-03-30T11:06:24.023Z,51.40
2023-03-30T11:09:03.483Z,50.60
2023-03-30T11:11:47.848Z,48.70
2023-03-30T11:14:40.903Z,47.20
2023-03-30T11:18:00.469Z,48.10
2023-03-30T11:20:48.145Z,52.20
2023-03-30T11:23:39.730Z,46.20
2023-03-30T11:26:24.909Z,45.90
2023-03-30T11:29:34.334Z,45.70
2023-03-30T11:32:30.208Z,45.30
2023-03-30T11:35:24.454Z,42.50
2023-03-30T11:38:11.096Z,45.70
2023-03-30T11:41:05.837Z,43.20
2023-03-30T11:43:41.818Z,43.70
2023-03-30T11:46:48.066Z,44.30
2023-03-30T11:49:36.175Z,48.60
2023-03-30T11:53:17.417Z,44.90
2023-03-30T11:56:14.020Z,44.00
2023-03-30T11:59:30.070Z,44.70
2023-03-30T12:02:41.889Z,45.60
2023-03-30T12:05:40.786Z,43.80
2023-03-30T12:08:58.236Z,41.90
2023-03-30T12:11:57.349Z,41.20
2023-03-30T12:15:08.988Z,41.50
2023-03-30T12:18:06.386Z,42.30
2023-03-30T12:21:16.637Z,39.70
2023-03-30T12:24:18.204Z,39.00
2023-03-30T12:27:04.450Z,40.10
2023-03-30T12:32:30.916Z,40.70
2023-03-30T12:35:49.743Z,39.70
2023-03-30T12:38:38.354Z,40.60
2023-03-30T12:41:22.240Z,38.70
2023-03-30T12:44:36.461Z,39.30
2023-03-30T12:47:36.113Z,38.20
2023-03-30T12:50:25.733Z,37.70
2023-03-30T12:53:53.867Z,36.60
2023-03-30T12:57:07.390Z,36.50
2023-03-30T13:00:16.318Z,35.30
2023-03-30T13:03:19.183Z,35.00
2023-03-30T13:06:00.398Z,35.20
2023-03-30T13:08:41.168Z,34.10
2023-03-30T13:11:21.980Z,34.40
2023-03-30T13:14:00.727Z,34.50
2023-03-30T13:16:51.360Z,33.80
2023-03-30T13:19:32.172Z,32.90
2023-03-30T13:22:13.417Z,33.30
2023-03-30T13:25:02.461Z,31.70
2023-03-30T13:27:41.717Z,30.80
2023-03-30T13:30:17.562Z,30.80
2023-03-30T13:33:01.412Z,31.30
2023-03-30T13:35:46.840Z,30.30
2023-03-30T13:38:36.415Z,30.70
2023-03-30T13:41:29.384Z,31.20
2023-03-30T13:44:43.929Z,30.60
2023-03-30T13:47:42.236Z,30.60
2023-03-30T13:50:24.870Z,30.90
2023-03-30T13:53:08.690Z,31.30
2023-03-30T13:55:50.711Z,30.90
2023-03-30T13:58:32.862Z,31.60
2023-03-30T14:01:10.703Z,31.20
2023-03-30T14:03:57.162Z,30.70
2023-03-30T14:06:35.485Z,31.00
2023-03-30T14:09:17.242Z,31.20
2023-03-30T14:12:02.466Z,30.80
2023-03-30T14:14:46.845Z,31.40
2023-03-30T14:17:24.677Z,31.00
2023-03-30T14:20:44.362Z,29.80
2023-03-30T14:23:38.026Z,29.90
2023-03-30T14:26:23.212Z,30.00
2023-03-30T14:29:03.460Z,30.50
2023-03-30T14:31:40.755Z,30.30
2023-03-30T14:34:26.341Z,30.10
2023-03-30T14:37:08.092Z,30.10
2023-03-30T14:39:47.834Z,30.40
2023-03-30T14:42:28.802Z,30.60
2023-03-30T14:45:04.156Z,30.40
2023-03-30T14:47:39.145Z,30.60
2023-03-30T14:50:16.911Z,30.00
2023-03-30T14:52:52.496Z,29.50
2023-03-30T14:55:28.221Z,29.70
2023-03-30T14:58:03.306Z,29.70
2023-03-30T15:00:39.029Z,29.30
2023-03-30T15:03:22.936Z,31.00
2023-03-30T15:06:07.069Z,32.10
2023-03-30T15:08:47.425Z,30.90
2023-03-30T15:11:26.235Z,30.20
2023-03-30T15:14:09.745Z,30.20
2023-03-30T15:16:50.509Z,30.20
2023-03-30T15:19:38.010Z,30.70
2023-03-30T15:22:29.413Z,30.00
2023-03-30T15:25:13.906Z,30.20
2023-03-30T15:28:19.226Z,30.40
2023-03-30T15:30:54.474Z,30.10
2023-03-30T15:33:41.605Z,30.70
2023-03-30T15:36:22.855Z,30.50
2023-03-30T15:38:59.505Z,31.80
2023-03-30T15:42:07.835Z,35.50
2023-03-30T15:44:42.911Z,35.40
2023-03-30T15:47:21.322Z,33.70
2023-03-30T15:49:56.367Z,33.10
2023-03-30T15:52:43.704Z,32.80
2023-03-30T15:55:26.488Z,32.00
2023-03-30T15:58:03.636Z,32.50
2023-03-30T16:00:38.594Z,32.10
2023-03-30T16:03:14.008Z,32.50
2023-03-30T16:05:48.915Z,32.30
2023-03-30T16:08:23.877Z,32.20
2023-03-30T16:10:58.903Z,31.40
2023-03-30T16:13:33.840Z,31.10
2023-03-30T16:16:11.057Z,31.30
2023-03-30T16:18:46.158Z,30.30
2023-03-30T16:21:24.490Z,30.00
2023-03-30T16:23:59.398Z,30.20
2023-03-30T16:26:34.493Z,28.90
2023-03-30T16:29:21.340Z,28.10
2023-03-30T16:31:56.521Z,28.90
2023-03-30T16:34:31.685Z,29.00
2023-03-30T16:37:06.659Z,29.20
2023-03-30T16:39:41.611Z,29.10
2023-03-30T16:42:16.509Z,29.00
2023-03-30T16:44:51.682Z,28.90
2023-03-30T16:47:27.291Z,28.80
2023-03-30T16:50:10.839Z,29.10
2023-03-30T16:52:46.478Z,29.00
2023-03-30T16:55:21.484Z,29.00
2023-03-30T16:57:56.527Z,29.30
2023-03-30T17:00:37.747Z,29.40
2023-03-30T17:03:12.978Z,29.70
2023-03-30T17:05:48.994Z,29.80
2023-03-30T17:08:27.431Z,30.00
2023-03-30T17:11:07.880Z,30.00
2023-03-30T17:13:43.635Z,30.30
2023-03-30T17:16:18.681Z,30.70
2023-03-30T17:18:53.641Z,30.40
2023-03-30T17:21:28.720Z,30.70
2023-03-30T17:24:04.659Z,30.70
2023-03-30T17:26:39.870Z,30.80
2023-03-30T17:29:14.740Z,31.00
2023-03-30T17:31:49.726Z,31.40
2023-03-30T17:34:24.684Z,31.40
2023-03-30T17:36:59.556Z,31.70
2023-03-30T17:39:34.492Z,31.90
2023-03-30T17:42:09.481Z,31.90
2023-03-30T17:44:44.345Z,32.10
2023-03-30T17:47:19.212Z,32.20
2023-03-30T17:49:54.167Z,32.30
2023-03-30T17:52:30.320Z,32.60
2023-03-30T17:55:05.978Z,32.40
2023-03-30T17:57:41.985Z,32.80
2023-03-30T18:00:23.156Z,32.70
2023-03-30T18:03:00.418Z,32.90
2023-03-30T18:05:35.459Z,33.00
2023-03-30T18:08:22.367Z,33.20
2023-03-30T18:11:00.172Z,33.30
2023-03-30T18:13:35.664Z,33.40
2023-03-30T18:16:14.251Z,33.30
2023-03-30T18:18:49.234Z,33.50
2023-03-30T18:21:24.122Z,33.80
2023-03-30T18:23:59.384Z,33.90
2023-03-30T18:26:35.617Z,34.60
2023-03-30T18:29:20.475Z,33.90
2023-03-30T18:31:55.701Z,34.10
2023-03-30T18:34:30.718Z,34.10
2023-03-30T18:37:05.664Z,34.00
2023-03-30T18:39:43.730Z,34.30
2023-03-30T18:42:18.677Z,34.00
2023-03-30T18:44:53.722Z,34.30
2023-03-30T18:47:28.655Z,34.30
2023-03-30T18:50:10.624Z,34.40
2023-03-30T18:52:45.900Z,34.50
2023-03-30T18:55:20.835Z,34.80
2023-03-30T18:57:57.930Z,34.80
2023-03-30T19:00:35.412Z,34.80
2023-03-30T19:03:13.196Z,35.10
2023-03-30T19:05:49.336Z,34.90
2023-03-30T19:08:26.425Z,35.20
2023-03-30T19:11:01.325Z,36.60
2023-03-30T19:13:36.712Z,35.20
2023-03-30T19:16:11.596Z,35.00
2023-03-30T19:18:46.660Z,35.10
2023-03-30T19:21:21.897Z,35.40
2023-03-30T19:23:56.952Z,35.20
2023-03-30T19:26:34.015Z,35.20
2023-03-30T19:29:08.878Z,35.30
2023-03-30T19:31:43.845Z,34.90
2023-03-30T19:34:19.204Z,35.20
2023-03-30T19:36:54.135Z,35.20
2023-03-30T19:39:28.977Z,35.20
2023-03-30T19:42:03.986Z,35.40
2023-03-30T19:44:39.176Z,35.70
2023-03-30T19:47:14.695Z,35.80
2023-03-30T19:49:49.567Z,36.00
2023-03-30T19:52:25.218Z,36.30
2023-03-30T19:55:01.343Z,36.40
2023-03-30T19:57:37.816Z,36.70
2023-03-30T20:00:15.998Z,36.90
2023-03-30T20:02:54.263Z,37.00
2023-03-30T20:05:29.258Z,37.10
2023-03-30T20:08:17.003Z,37.30
2023-03-30T20:10:59.359Z,37.50
2023-03-30T20:13:35.920Z,37.70
2023-03-30T20:16:14.390Z,37.70
2023-03-30T20:18:54.000Z,37.80
2023-03-30T20:21:28.893Z,37.90
2023-03-30T20:24:04.058Z,38.20
2023-03-30T20:26:38.916Z,38.20
2023-03-30T20:29:13.819Z,38.20
2023-03-30T20:31:48.716Z,38.40
2023-03-30T20:34:24.183Z,38.50
2023-03-30T20:36:59.031Z,38.40
2023-03-30T20:39:34.225Z,38.50
2023-03-30T20:42:09.686Z,38.50
2023-03-30T20:44:50.354Z,38.70
2023-03-30T20:47:30.111Z,38.90
2023-03-30T20:50:06.421Z,39.10
2023-03-30T20:52:41.323Z,39.30
2023-03-30T20:55:16.926Z,39.30
2023-03-30T20:57:51.786Z,39.50
2023-03-30T21:00:27.408Z,39.60
2023-03-30T21:03:02.570Z,39.70
2023-03-30T21:05:37.531Z,39.80
2023-03-30T21:08:12.475Z,39.70
2023-03-30T21:10:47.337Z,39.60
2023-03-30T21:13:22.242Z,39.50
2023-03-30T21:15:59.343Z,39.50
2023-03-30T21:18:35.727Z,39.40
2023-03-30T21:21:11.094Z,39.40
2023-03-30T21:23:46.492Z,39.40
2023-03-30T21:26:21.539Z,39.10
2023-03-30T21:28:56.838Z,39.10
2023-03-30T21:31:32.068Z,38.90
2023-03-30T21:34:09.045Z,38.90
2023-03-30T21:36:44.305Z,39.20
2023-03-30T21:39:19.299Z,38.70
2023-03-30T21:41:54.251Z,38.70
2023-03-30T21:44:29.139Z,38.50
2023-03-30T21:47:04.055Z,38.50
2023-03-30T21:49:38.954Z,38.60
2023-03-30T21:52:13.812Z,38.60
2023-03-30T21:54:48.649Z,38.50
2023-03-30T21:57:23.647Z,38.50
2023-03-30T21:59:58.526Z,38.40
2023-03-30T22:02:33.495Z,38.60
2023-03-30T22:05:08.544Z,38.60
2023-03-30T22:07:43.510Z,38.40
2023-03-30T22:10:18.655Z,38.20
2023-03-30T22:12:53.517Z,38.30
2023-03-30T22:15:28.375Z,38.10
2023-03-30T22:18:06.527Z,38.00
2023-03-30T22:20:41.442Z,37.60
2023-03-30T22:23:16.298Z,37.70
2023-03-30T22:25:52.067Z,37.40
2023-03-30T22:28:27.209Z,37.40
2023-03-30T22:31:02.230Z,37.50
2023-03-30T22:33:37.996Z,37.40
2023-03-30T22:36:20.423Z,37.30
2023-03-30T22:38:57.410Z,37.20
2023-03-30T22:41:32.363Z,37.20
2023-03-30T22:44:07.243Z,37.20
2023-03-30T22:46:42.087Z,37.20
2023-03-30T22:49:17.674Z,37.00
2023-03-30T22:51:53.311Z,37.00
2023-03-30T22:54:28.250Z,37.00
2023-03-30T22:57:03.224Z,37.20
2023-03-30T22:59:38.180Z,37.00
2023-03-30T23:02:13.085Z,37.00
2023-03-30T23:04:49.466Z,36.80
2023-03-30T23:07:24.394Z,36.90
2023-03-30T23:10:03.479Z,36.50
2023-03-30T23:12:38.375Z,36.40
2023-03-30T23:15:14.198Z,36.60
2023-03-30T23:17:49.458Z,36.60
2023-03-30T23:20:24.436Z,36.50
2023-03-30T23:22:59.375Z,36.40
2023-03-30T23:25:34.222Z,36.20
2023-03-30T23:28:09.111Z,36.20
2023-03-30T23:30:47.093Z,36.20
2023-03-30T23:33:22.160Z,36.10
2023-03-30T23:35:57.147Z,36.20
2023-03-30T23:38:32.741Z,36.20
2023-03-30T23:41:08.087Z,36.00
2023-03-30T23:43:43.148Z,36.30
2023-03-30T23:46:19.795Z,36.00
2023-03-30T23:48:54.807Z,36.10
2023-03-30T23:51:29.869Z,36.00
2023-03-30T23:54:08.226Z,36.10
2023-03-30T23:56:43.583Z,36.10
2023-03-30T23:59:18.458Z,36.30
